createdAt,value
2022-08-07T00:00:53.968Z,8.00
2022-08-07T00:02:36.648Z,8.00
2022-08-07T00:02:54.025Z,8.00
2022-08-07T00:03:55.139Z,8.00
2022-08-07T00:04:53.981Z,8.00
2022-08-07T00:05:54.086Z,8.00
2022-08-07T00:06:53.896Z,8.00
2022-08-07T00:08:00.318Z,8.00
2022-08-07T00:08:54.073Z,8.00
2022-08-07T00:10:17.760Z,8.00
2022-08-07T00:10:57.299Z,8.00
2022-08-07T00:11:56.118Z,8.00
2022-08-07T00:13:00.252Z,8.00
2022-08-07T00:13:53.862Z,8.00
2022-08-07T00:14:53.799Z,8.00
2022-08-07T00:15:53.782Z,8.00
2022-08-07T00:16:53.775Z,8.00
2022-08-07T00:17:53.757Z,8.00
2022-08-07T00:18:54.048Z,8.00
2022-08-07T00:20:01.665Z,8.00
2022-08-07T00:20:53.724Z,8.00
2022-08-07T00:21:57.335Z,8.00
2022-08-07T00:22:53.698Z,8.00
2022-08-07T00:23:53.683Z,8.00
2022-08-07T00:24:53.722Z,8.00
2022-08-07T00:26:00.053Z,8.00
2022-08-07T00:27:06.305Z,8.00
2022-08-07T00:27:56.634Z,8.00
2022-08-07T00:28:56.803Z,8.00
2022-08-07T00:29:53.654Z,8.00
2022-08-07T00:30:53.693Z,8.00
2022-08-07T00:31:53.587Z,8.00
2022-08-07T00:32:53.578Z,8.00
2022-08-07T00:33:53.558Z,8.00
2022-08-07T00:34:53.543Z,8.00
2022-08-07T00:35:53.734Z,8.00
2022-08-07T00:36:53.517Z,8.00
2022-08-07T00:37:53.508Z,8.00
2022-08-07T00:38:53.496Z,8.00
2022-08-07T00:39:54.470Z,8.00
2022-08-07T00:40:53.567Z,8.00
2022-08-07T00:42:02.601Z,8.00
2022-08-07T00:42:53.446Z,8.00
2022-08-07T00:44:00.198Z,8.00
2022-08-07T00:44:53.420Z,8.00
2022-08-07T00:45:53.407Z,8.00
2022-08-07T00:46:53.594Z,8.00
2022-08-07T00:48:08.757Z,8.00
2022-08-07T00:48:53.369Z,8.00
2022-08-07T00:50:19.128Z,8.00
2022-08-07T00:50:53.357Z,8.00
2022-08-07T00:51:56.802Z,8.00
2022-08-07T00:52:53.323Z,8.00
2022-08-07T00:53:55.281Z,8.00
2022-08-07T00:54:53.877Z,8.00
2022-08-07T00:56:02.290Z,8.00
2022-08-07T00:56:53.521Z,8.00
2022-08-07T00:57:55.688Z,8.00
2022-08-07T00:58:53.244Z,8.00
2022-08-07T00:59:53.228Z,8.00
2022-08-07T01:00:53.968Z,8.00
2022-08-07T01:01:53.467Z,8.00
2022-08-07T01:02:53.189Z,8.00
2022-08-07T01:03:56.584Z,8.00
2022-08-07T01:04:53.166Z,8.00
2022-08-07T01:05:53.692Z,8.00
2022-08-07T01:06:53.806Z,8.00
2022-08-07T01:07:53.124Z,8.00
2022-08-07T01:08:55.771Z,8.00
2022-08-07T01:10:06.578Z,8.00
2022-08-07T01:10:54.393Z,8.00
2022-08-07T01:12:09.584Z,8.00
2022-08-07T01:12:54.722Z,8.00
2022-08-07T01:13:56.080Z,8.00
2022-08-07T01:15:00.769Z,8.00
2022-08-07T01:16:04.948Z,8.00
2022-08-07T01:16:53.068Z,8.00
2022-08-07T01:17:53.001Z,8.00
2022-08-07T01:18:52.987Z,8.00
2022-08-07T01:19:54.359Z,8.00
2022-08-07T01:20:58.498Z,8.00
2022-08-07T01:21:55.401Z,8.00
2022-08-07T01:23:12.301Z,8.00
2022-08-07T01:23:52.924Z,8.00
2022-08-07T01:24:52.913Z,8.00
2022-08-07T01:25:56.086Z,8.00
2022-08-07T01:26:53.915Z,8.00
2022-08-07T01:27:52.872Z,8.00
2022-08-07T01:28:52.858Z,8.00
2022-08-07T01:29:52.848Z,8.00
2022-08-07T01:30:52.836Z,8.00
2022-08-07T01:31:52.972Z,8.00
2022-08-07T01:32:52.815Z,8.00
2022-08-07T01:33:55.588Z,8.00
2022-08-07T01:34:52.786Z,8.00
2022-08-07T01:35:54.717Z,8.00
2022-08-07T01:36:58.269Z,8.00
2022-08-07T01:37:52.893Z,8.00
2022-08-07T01:38:52.736Z,8.00
2022-08-07T01:39:52.878Z,8.00
2022-08-07T01:40:52.711Z,8.00
2022-08-07T01:42:07.220Z,8.00
2022-08-07T01:42:58.464Z,8.00
2022-08-07T01:43:52.871Z,8.00
2022-08-07T01:44:52.661Z,8.00
2022-08-07T01:45:54.409Z,8.00
2022-08-07T01:46:52.635Z,8.00
2022-08-07T01:48:18.600Z,8.00
2022-08-07T01:48:52.609Z,8.00
2022-08-07T01:49:53.669Z,8.00
2022-08-07T01:50:52.584Z,8.00
2022-08-07T01:52:02.440Z,8.00
2022-08-07T01:52:54.923Z,8.00
2022-08-07T01:54:12.361Z,8.00
2022-08-07T01:54:52.583Z,8.00
2022-08-07T01:55:52.523Z,8.00
2022-08-07T01:56:52.507Z,8.00
2022-08-07T01:58:06.921Z,8.00
2022-08-07T01:58:52.482Z,8.00
2022-08-07T01:59:52.966Z,8.00
2022-08-07T02:00:52.496Z,8.00
2022-08-07T02:02:01.628Z,8.00
2022-08-07T02:03:18.744Z,8.00
2022-08-07T02:03:52.502Z,8.00
2022-08-07T02:04:56.581Z,8.00
2022-08-07T02:05:59.390Z,8.00
2022-08-07T02:06:52.381Z,8.00
2022-08-07T02:07:52.460Z,8.00
2022-08-07T02:08:54.321Z,8.00
2022-08-07T02:09:58.620Z,8.00
2022-08-07T02:10:55.397Z,8.00
2022-08-07T02:12:02.994Z,8.00
2022-08-07T02:12:52.304Z,8.00
2022-08-07T02:13:57.567Z,8.00
2022-08-07T02:14:52.277Z,8.00
2022-08-07T02:15:52.999Z,8.00
2022-08-07T02:16:52.267Z,8.00
2022-08-07T02:17:52.243Z,8.00
2022-08-07T02:18:52.231Z,8.00
2022-08-07T02:20:05.372Z,8.00
2022-08-07T02:20:55.956Z,8.00
2022-08-07T02:21:56.759Z,8.00
2022-08-07T02:22:53.000Z,8.00
2022-08-07T02:23:52.171Z,8.00
2022-08-07T02:24:52.156Z,8.00
2022-08-07T02:26:30.506Z,8.00
2022-08-07T02:26:52.128Z,8.00
2022-08-07T02:27:53.058Z,8.00
2022-08-07T02:28:52.103Z,8.00
2022-08-07T02:29:54.573Z,8.00
2022-08-07T02:30:52.328Z,8.00
2022-08-07T02:31:52.072Z,8.00
2022-08-07T02:33:09.241Z,8.00
2022-08-07T02:34:01.705Z,8.00
2022-08-07T02:34:52.038Z,8.00
2022-08-07T02:36:29.879Z,8.00
2022-08-07T02:36:52.006Z,8.00
2022-08-07T02:37:51.996Z,8.00
2022-08-07T02:38:56.726Z,8.00
2022-08-07T02:40:12.068Z,8.00
2022-08-07T02:40:56.082Z,8.00
2022-08-07T02:41:54.861Z,8.00
2022-08-07T02:42:51.929Z,8.00
2022-08-07T02:43:51.919Z,8.00
2022-08-07T02:44:52.105Z,8.00
2022-08-07T02:45:59.447Z,8.00
2022-08-07T02:46:52.896Z,8.00
2022-08-07T02:47:51.872Z,8.00
2022-08-07T02:48:55.014Z,8.00
2022-08-07T02:49:57.498Z,8.00
2022-08-07T02:50:51.936Z,8.00
2022-08-07T02:51:52.198Z,8.00
2022-08-07T02:52:51.808Z,8.00
2022-08-07T02:53:51.795Z,8.00
2022-08-07T02:54:52.099Z,8.00
2022-08-07T02:56:03.451Z,8.00
2022-08-07T02:56:52.158Z,8.00
2022-08-07T02:57:51.741Z,8.00
2022-08-07T02:58:54.172Z,8.00
2022-08-07T02:59:55.023Z,8.00
2022-08-07T03:00:51.785Z,8.00
2022-08-07T03:01:52.143Z,8.00
2022-08-07T03:02:54.542Z,8.00
2022-08-07T03:03:51.671Z,8.00
2022-08-07T03:04:51.662Z,8.00
2022-08-07T03:05:51.645Z,8.00
2022-08-07T03:06:51.637Z,8.00
2022-08-07T03:08:06.852Z,8.00
2022-08-07T03:08:52.061Z,8.00
2022-08-07T03:09:52.444Z,8.00
2022-08-07T03:10:51.585Z,8.00
2022-08-07T03:11:57.611Z,8.00
2022-08-07T03:12:51.984Z,8.00
2022-08-07T03:13:51.547Z,8.00
2022-08-07T03:14:52.144Z,8.00
2022-08-07T03:15:56.454Z,8.00
2022-08-07T03:16:52.478Z,8.00
2022-08-07T03:17:53.335Z,8.00
2022-08-07T03:18:51.490Z,8.00
2022-08-07T03:19:54.451Z,8.00
2022-08-07T03:20:51.511Z,8.00
2022-08-07T03:21:51.446Z,8.00
2022-08-07T03:22:51.439Z,8.00
2022-08-07T03:24:20.966Z,8.00
2022-08-07T03:24:51.415Z,8.00
2022-08-07T03:25:58.208Z,8.00
2022-08-07T03:26:59.139Z,8.00
2022-08-07T03:27:59.144Z,8.00
2022-08-07T03:28:51.597Z,8.00
2022-08-07T03:29:51.454Z,8.00
2022-08-07T03:30:51.642Z,8.00
2022-08-07T03:31:51.330Z,8.00
2022-08-07T03:32:58.754Z,8.00
2022-08-07T03:33:51.305Z,8.00
2022-08-07T03:35:16.918Z,8.00
2022-08-07T03:35:51.976Z,8.00
2022-08-07T03:36:51.268Z,8.00
2022-08-07T03:37:53.908Z,8.00
2022-08-07T03:38:51.241Z,8.00
2022-08-07T03:40:13.099Z,8.00
2022-08-07T03:40:57.467Z,8.00
2022-08-07T03:41:53.155Z,8.00
2022-08-07T03:42:51.193Z,8.00
2022-08-07T03:43:57.257Z,8.00
2022-08-07T03:44:53.661Z,8.00
2022-08-07T03:45:51.154Z,8.00
2022-08-07T03:47:10.893Z,8.00
2022-08-07T03:47:51.423Z,8.00
2022-08-07T03:49:02.675Z,8.00
2022-08-07T03:49:52.466Z,8.00
2022-08-07T03:50:55.844Z,8.00
2022-08-07T03:51:55.111Z,8.00
2022-08-07T03:52:51.075Z,8.00
2022-08-07T03:54:33.119Z,8.00
2022-08-07T03:54:54.844Z,8.00
2022-08-07T03:55:57.505Z,8.00
2022-08-07T03:57:03.359Z,8.00
2022-08-07T03:58:32.706Z,8.00
2022-08-07T03:59:09.384Z,8.00
2022-08-07T04:00:01.661Z,8.00
2022-08-07T04:00:53.339Z,8.00
2022-08-07T04:01:51.119Z,8.00
2022-08-07T04:02:50.958Z,8.00
2022-08-07T04:03:55.239Z,8.00
2022-08-07T04:04:50.930Z,8.00
2022-08-07T04:05:50.916Z,8.00
2022-08-07T04:06:51.744Z,8.00
2022-08-07T04:07:51.079Z,8.00
2022-08-07T04:08:50.880Z,8.00
2022-08-07T04:09:50.865Z,8.00
2022-08-07T04:10:53.868Z,8.00
2022-08-07T04:12:21.160Z,8.00
2022-08-07T04:12:50.833Z,8.00
2022-08-07T04:14:32.896Z,8.00
2022-08-07T04:14:50.814Z,8.00
2022-08-07T04:15:50.799Z,8.00
2022-08-07T04:16:58.535Z,8.00
2022-08-07T04:18:56.363Z,8.00
2022-08-07T04:18:59.356Z,8.00
2022-08-07T04:19:52.211Z,8.00
2022-08-07T04:20:54.635Z,8.00
2022-08-07T04:22:00.227Z,8.00
2022-08-07T04:22:53.102Z,8.00
2022-08-07T04:24:07.622Z,8.00
2022-08-07T04:24:50.687Z,8.00
2022-08-07T04:25:50.678Z,8.00
2022-08-07T04:26:50.665Z,8.00
2022-08-07T04:27:59.423Z,8.00
2022-08-07T04:28:50.642Z,8.00
2022-08-07T04:30:01.127Z,8.00
2022-08-07T04:30:57.199Z,8.00
2022-08-07T04:32:09.722Z,8.00
2022-08-07T04:32:58.541Z,8.00
2022-08-07T04:33:55.051Z,8.00
2022-08-07T04:34:50.571Z,8.00
2022-08-07T04:35:51.225Z,8.00
2022-08-07T04:36:50.542Z,8.00
2022-08-07T04:38:00.967Z,8.00
2022-08-07T04:38:50.525Z,8.00
2022-08-07T04:39:50.548Z,8.00
2022-08-07T04:40:52.511Z,8.00
2022-08-07T04:41:50.966Z,8.00
2022-08-07T04:42:52.373Z,8.00
2022-08-07T04:44:13.035Z,8.00
2022-08-07T04:44:54.710Z,8.00
2022-08-07T04:46:01.372Z,8.00
2022-08-07T04:47:04.455Z,8.00
2022-08-07T04:48:00.902Z,8.00
2022-08-07T04:48:51.065Z,8.00
2022-08-07T04:50:03.583Z,8.00
2022-08-07T04:50:52.048Z,8.00
2022-08-07T04:51:50.517Z,8.00
2022-08-07T04:52:51.815Z,8.00
2022-08-07T04:54:05.207Z,8.00
2022-08-07T04:54:50.805Z,8.00
2022-08-07T04:58:10.639Z,8.00
2022-08-07T04:58:12.005Z,8.00
2022-08-07T04:58:16.753Z,8.00
2022-08-07T05:00:09.949Z,8.00
2022-08-07T05:00:11.510Z,8.00
2022-08-07T05:00:50.289Z,8.00
2022-08-07T05:01:50.695Z,8.00
2022-08-07T05:02:50.234Z,8.00
2022-08-07T05:04:07.374Z,8.00
2022-08-07T05:04:50.533Z,8.00
2022-08-07T05:05:54.451Z,8.00
2022-08-07T05:06:51.644Z,8.00
2022-08-07T05:07:51.782Z,8.00
2022-08-07T05:09:01.425Z,8.00
2022-08-07T05:09:50.152Z,8.00
2022-08-07T05:10:50.141Z,8.00
2022-08-07T05:11:58.287Z,8.00
2022-08-07T05:12:52.953Z,8.00
2022-08-07T05:14:52.168Z,8.00
2022-08-07T05:14:54.918Z,8.00
2022-08-07T05:15:50.560Z,8.00
2022-08-07T05:16:52.627Z,8.00
2022-08-07T05:17:51.644Z,8.00
2022-08-07T05:18:50.065Z,8.00
2022-08-07T05:19:50.039Z,8.00
2022-08-07T05:20:50.258Z,8.00
2022-08-07T05:22:00.889Z,8.00
2022-08-07T05:22:49.997Z,8.00
2022-08-07T05:23:49.987Z,8.00
2022-08-07T05:24:50.433Z,8.00
2022-08-07T05:26:10.954Z,8.00
2022-08-07T05:26:50.251Z,8.00
2022-08-07T05:28:16.215Z,8.00
2022-08-07T05:28:50.371Z,8.00
2022-08-07T05:29:51.979Z,8.00
2022-08-07T05:30:49.909Z,8.00
2022-08-07T05:31:52.776Z,8.00
2022-08-07T05:32:49.881Z,8.00
2022-08-07T05:34:01.502Z,8.00
2022-08-07T05:34:49.856Z,8.00
2022-08-07T05:35:49.851Z,8.00
2022-08-07T05:36:52.940Z,8.00
2022-08-07T05:38:08.871Z,8.00
2022-08-07T05:39:00.519Z,8.00
2022-08-07T05:40:14.159Z,8.00
2022-08-07T05:40:50.740Z,8.00
2022-08-07T05:42:01.113Z,8.00
2022-08-07T05:42:56.044Z,8.00
2022-08-07T05:44:08.537Z,8.00
2022-08-07T05:45:04.429Z,8.00
2022-08-07T05:45:49.724Z,8.00
2022-08-07T05:46:51.330Z,8.00
2022-08-07T05:48:01.242Z,8.00
2022-08-07T05:48:58.139Z,8.00
2022-08-07T05:49:49.754Z,8.00
2022-08-07T05:50:50.646Z,8.00
2022-08-07T05:51:49.649Z,8.00
2022-08-07T05:52:49.640Z,8.00
2022-08-07T05:54:13.912Z,8.00
2022-08-07T05:54:56.073Z,8.00
2022-08-07T05:56:03.649Z,8.00
2022-08-07T05:56:51.264Z,8.00
2022-08-07T05:57:49.580Z,8.00
2022-08-07T05:58:52.728Z,8.00
2022-08-07T05:59:55.938Z,8.00
2022-08-07T06:00:50.955Z,8.00
2022-08-07T06:01:49.574Z,8.00
2022-08-07T06:02:49.531Z,8.00
2022-08-07T06:03:53.443Z,8.00
2022-08-07T06:04:50.792Z,8.00
2022-08-07T06:05:49.691Z,8.00
2022-08-07T06:06:56.448Z,8.00
2022-08-07T06:08:14.321Z,8.00
2022-08-07T06:08:49.451Z,8.00
2022-08-07T06:10:05.461Z,8.00
2022-08-07T06:10:51.421Z,8.00
2022-08-07T06:11:49.415Z,8.00
2022-08-07T06:12:49.407Z,8.00
2022-08-07T06:14:11.418Z,8.00
2022-08-07T06:14:49.872Z,8.00
2022-08-07T06:15:50.057Z,8.00
2022-08-07T06:16:50.393Z,8.00
2022-08-07T06:17:53.696Z,8.00
2022-08-07T06:18:51.528Z,8.00
2022-08-07T06:20:03.750Z,8.00
2022-08-07T06:20:50.804Z,8.00
2022-08-07T06:22:15.936Z,8.00
2022-08-07T06:22:50.609Z,8.00
2022-08-07T06:24:52.361Z,8.00
2022-08-07T06:24:56.996Z,8.00
2022-08-07T06:25:54.782Z,8.00
2022-08-07T06:26:49.284Z,8.00
2022-08-07T06:28:01.402Z,8.00
2022-08-07T06:28:49.292Z,8.00
2022-08-07T06:29:49.194Z,8.00
2022-08-07T06:30:50.806Z,8.00
2022-08-07T06:31:50.590Z,8.00
2022-08-07T06:32:49.162Z,8.00
2022-08-07T06:33:49.150Z,8.00
2022-08-07T06:34:49.138Z,8.00
2022-08-07T06:36:12.360Z,8.00
2022-08-07T06:36:51.790Z,8.00
2022-08-07T06:37:49.107Z,8.00
2022-08-07T06:38:51.394Z,8.00
2022-08-07T06:40:17.215Z,8.00
2022-08-07T06:40:49.078Z,8.00
2022-08-07T06:42:02.140Z,8.00
2022-08-07T06:42:49.041Z,8.00
2022-08-07T06:44:01.560Z,8.00
2022-08-07T06:44:51.193Z,8.00
2022-08-07T06:45:49.011Z,8.00
2022-08-07T06:46:53.576Z,8.00
2022-08-07T06:47:58.507Z,8.00
2022-08-07T06:48:48.978Z,8.00
2022-08-07T06:49:51.470Z,8.00
2022-08-07T06:50:48.951Z,8.00
2022-08-07T06:51:50.292Z,8.00
2022-08-07T06:52:52.996Z,8.00
2022-08-07T06:54:12.213Z,8.00
2022-08-07T06:55:31.198Z,8.00
2022-08-07T06:55:53.647Z,8.00
2022-08-07T06:56:50.010Z,8.00
2022-08-07T06:57:53.359Z,8.00
2022-08-07T07:00:11.647Z,8.00
2022-08-07T07:00:14.490Z,8.00
2022-08-07T07:00:48.839Z,8.00
2022-08-07T07:01:50.915Z,8.00
2022-08-07T07:02:57.492Z,8.00
2022-08-07T07:03:58.130Z,8.00
2022-08-07T07:04:54.734Z,8.00
2022-08-07T07:06:03.450Z,8.00
2022-08-07T07:07:00.814Z,8.00
2022-08-07T07:08:00.294Z,8.00
2022-08-07T07:08:48.884Z,8.00
2022-08-07T07:09:48.724Z,8.00
2022-08-07T07:10:57.047Z,8.00
2022-08-07T07:12:09.066Z,8.00
2022-08-07T07:12:50.309Z,8.00
2022-08-07T07:13:58.127Z,8.00
2022-08-07T07:14:48.714Z,8.00
2022-08-07T07:15:51.432Z,8.00
2022-08-07T07:16:51.041Z,8.00
2022-08-07T07:17:50.605Z,8.00
2022-08-07T07:18:48.776Z,8.00
2022-08-07T07:19:58.014Z,8.00
2022-08-07T07:20:48.798Z,8.00
2022-08-07T07:22:11.753Z,8.00
2022-08-07T07:24:06.534Z,8.00
2022-08-07T07:24:08.577Z,8.00
2022-08-07T07:24:56.970Z,8.00
2022-08-07T07:26:32.120Z,8.00
2022-08-07T07:26:49.564Z,8.00
2022-08-07T07:27:55.444Z,8.00
2022-08-07T07:29:56.170Z,8.00
2022-08-07T07:30:07.662Z,8.00
2022-08-07T07:30:48.475Z,8.00
2022-08-07T07:31:48.619Z,8.00
2022-08-07T07:32:48.450Z,8.00
2022-08-07T07:33:54.886Z,8.00
2022-08-07T07:34:48.673Z,8.00
2022-08-07T07:36:05.272Z,8.00
2022-08-07T07:36:52.720Z,8.00
2022-08-07T07:38:02.136Z,8.00
2022-08-07T07:38:48.387Z,8.00
2022-08-07T07:39:54.469Z,8.00
2022-08-07T07:40:48.356Z,8.00
2022-08-07T07:41:50.695Z,8.00
2022-08-07T07:42:53.723Z,8.00
2022-08-07T07:44:17.353Z,8.00
2022-08-07T07:44:49.522Z,8.00
2022-08-07T07:46:38.023Z,8.00
2022-08-07T07:46:54.469Z,8.00
2022-08-07T07:47:51.970Z,8.00
2022-08-07T07:48:48.266Z,8.00
2022-08-07T07:50:36.105Z,8.00
2022-08-07T07:50:48.243Z,8.00
2022-08-07T07:51:58.338Z,8.00
2022-08-07T07:52:48.222Z,8.00
2022-08-07T07:53:52.832Z,8.00
2022-08-07T07:54:50.614Z,8.00
2022-08-07T07:55:57.773Z,8.00
2022-08-07T07:56:48.324Z,8.00
2022-08-07T07:57:53.263Z,8.00
2022-08-07T07:58:48.147Z,8.00
2022-08-07T07:59:52.530Z,8.00
2022-08-07T08:00:53.773Z,8.00
2022-08-07T08:02:01.667Z,8.00
2022-08-07T08:03:04.992Z,8.00
2022-08-07T08:04:10.466Z,8.00
2022-08-07T08:04:50.419Z,8.00
2022-08-07T08:05:54.833Z,8.00
2022-08-07T08:06:51.960Z,8.00
2022-08-07T08:07:59.804Z,8.00
2022-08-07T08:08:48.293Z,8.00
2022-08-07T08:09:52.073Z,8.00
2022-08-07T08:10:48.011Z,8.00
2022-08-07T08:12:03.029Z,8.00
2022-08-07T08:12:52.638Z,8.00
2022-08-07T08:13:54.660Z,8.00
2022-08-07T08:14:47.959Z,8.00
2022-08-07T08:15:58.414Z,8.00
2022-08-07T08:17:57.356Z,8.00
2022-08-07T08:18:36.807Z,8.00
2022-08-07T08:18:50.383Z,8.00
2022-08-07T08:20:17.494Z,8.00
2022-08-07T08:20:48.049Z,8.00
2022-08-07T08:21:55.356Z,8.00
2022-08-07T08:22:54.310Z,8.00
2022-08-07T08:23:47.906Z,8.00
2022-08-07T08:24:47.848Z,8.00
2022-08-07T08:25:49.212Z,8.00
2022-08-07T08:26:50.624Z,8.00
2022-08-07T08:27:56.770Z,8.00
2022-08-07T08:28:48.294Z,8.00
2022-08-07T08:29:55.728Z,8.00
2022-08-07T08:30:51.284Z,8.00
2022-08-07T08:32:17.423Z,8.00
2022-08-07T08:32:48.841Z,8.00
2022-08-07T08:33:49.791Z,8.00
2022-08-07T08:34:47.830Z,8.00
2022-08-07T08:35:49.886Z,8.00
2022-08-07T08:36:47.703Z,8.00
2022-08-07T08:37:59.825Z,8.00
2022-08-07T08:38:47.681Z,8.00
2022-08-07T08:39:55.272Z,8.00
2022-08-07T08:40:47.703Z,8.00
2022-08-07T08:41:59.001Z,8.00
2022-08-07T08:42:47.634Z,8.00
2022-08-07T08:43:53.677Z,8.00
2022-08-07T08:44:47.610Z,8.00
2022-08-07T08:45:58.903Z,8.00
2022-08-07T08:46:47.684Z,8.00
2022-08-07T08:47:54.720Z,8.00
2022-08-07T08:48:51.013Z,8.00
2022-08-07T08:50:02.466Z,8.00
2022-08-07T08:50:47.533Z,8.00
2022-08-07T08:51:49.508Z,8.00
2022-08-07T08:52:51.632Z,8.00
2022-08-07T08:53:47.498Z,8.00
2022-08-07T08:54:47.490Z,8.00
2022-08-07T08:55:54.609Z,8.00
2022-08-07T08:56:47.903Z,8.00
2022-08-07T08:57:47.456Z,8.00
2022-08-07T08:58:47.443Z,8.00
2022-08-07T08:59:48.112Z,8.00
2022-08-07T09:00:48.696Z,8.00
2022-08-07T09:01:49.430Z,8.00
2022-08-07T09:02:49.619Z,8.00
2022-08-07T09:03:52.798Z,8.00
2022-08-07T09:04:47.370Z,8.00
2022-08-07T09:05:47.362Z,8.00
2022-08-07T09:06:48.008Z,8.00
2022-08-07T09:07:57.829Z,8.00
2022-08-07T09:08:47.319Z,8.00
2022-08-07T09:09:47.530Z,8.00
2022-08-07T09:10:47.298Z,8.00
2022-08-07T09:11:53.320Z,8.00
2022-08-07T09:12:53.789Z,8.00
2022-08-07T09:13:47.262Z,8.00
2022-08-07T09:14:50.725Z,8.00
2022-08-07T09:16:23.194Z,8.00
2022-08-07T09:16:47.610Z,8.00
2022-08-07T09:18:00.784Z,8.00
2022-08-07T09:18:53.437Z,8.00
2022-08-07T09:19:51.662Z,8.00
2022-08-07T09:20:58.494Z,8.00
2022-08-07T09:22:10.279Z,8.00
2022-08-07T09:24:32.924Z,8.00
2022-08-07T09:24:35.115Z,8.00
2022-08-07T09:24:58.935Z,4.00
2022-08-07T09:25:54.239Z,4.00
2022-08-07T09:26:47.951Z,4.00
2022-08-07T09:28:00.711Z,4.00
2022-08-07T09:30:01.042Z,8.00
2022-08-07T09:30:05.815Z,8.00
2022-08-07T09:30:48.841Z,8.00
2022-08-07T09:31:49.362Z,8.00
2022-08-07T09:32:47.041Z,8.00
2022-08-07T09:33:57.514Z,4.00
2022-08-07T09:34:53.699Z,4.00
2022-08-07T09:36:04.386Z,8.00
2022-08-07T09:36:49.824Z,8.00
2022-08-07T09:37:48.519Z,8.00
2022-08-07T09:38:53.491Z,8.00
2022-08-07T09:39:54.983Z,8.00
2022-08-07T09:40:46.945Z,8.00
2022-08-07T09:41:58.983Z,8.00
2022-08-07T09:42:47.278Z,8.00
2022-08-07T09:44:05.454Z,8.00
2022-08-07T09:47:25.075Z,12.00
2022-08-07T09:47:25.996Z,8.00
2022-08-07T09:47:50.659Z,12.00
2022-08-07T09:47:58.326Z,12.00
2022-08-07T09:50:02.605Z,12.00
2022-08-07T09:50:02.686Z,12.00
2022-08-07T09:50:46.928Z,12.00
2022-08-07T09:52:10.190Z,16.00
2022-08-07T09:52:51.697Z,16.00
2022-08-07T09:53:50.099Z,16.00
2022-08-07T09:54:46.882Z,12.00
2022-08-07T09:56:04.678Z,12.00
2022-08-07T09:56:46.751Z,12.00
2022-08-07T09:57:47.101Z,16.00
2022-08-07T09:58:48.676Z,16.00
2022-08-07T10:00:00.594Z,16.00
2022-08-07T10:00:46.704Z,16.00
2022-08-07T10:01:50.439Z,20.00
2022-08-07T10:02:55.163Z,20.00
2022-08-07T10:04:06.293Z,24.00
2022-08-07T10:04:47.658Z,28.00
2022-08-07T10:05:59.800Z,28.00
2022-08-07T10:06:48.943Z,24.00
2022-08-07T10:07:53.337Z,24.00
2022-08-07T10:08:46.611Z,28.00
2022-08-07T10:10:00.768Z,32.00
2022-08-07T10:12:01.297Z,36.00
2022-08-07T10:12:53.131Z,36.00
2022-08-07T10:14:00.918Z,40.00
2022-08-07T10:14:54.237Z,48.00
2022-08-07T10:15:46.530Z,48.00
2022-08-07T10:16:46.563Z,52.00
2022-08-07T10:18:00.701Z,48.00
2022-08-07T10:18:46.491Z,56.00
2022-08-07T10:19:46.472Z,60.00
2022-08-07T10:20:46.472Z,64.00
2022-08-07T10:22:12.556Z,64.00
2022-08-07T10:22:46.643Z,60.00
2022-08-07T10:24:05.920Z,56.00
2022-08-07T10:24:46.417Z,56.00
2022-08-07T10:25:46.401Z,52.00
2022-08-07T10:26:53.259Z,48.00
2022-08-07T10:27:47.389Z,48.00
2022-08-07T10:28:49.672Z,44.00
2022-08-07T10:29:51.565Z,44.00
2022-08-07T10:30:46.343Z,40.00
2022-08-07T10:31:46.376Z,44.00
2022-08-07T10:32:52.815Z,48.00
2022-08-07T10:34:14.213Z,52.00
2022-08-07T10:34:46.296Z,56.00
2022-08-07T10:35:56.328Z,56.00
2022-08-07T10:36:46.570Z,64.00
2022-08-07T10:38:00.737Z,64.00
2022-08-07T10:38:48.970Z,60.00
2022-08-07T10:40:03.228Z,60.00
2022-08-07T10:40:46.227Z,64.00
2022-08-07T10:41:57.724Z,64.00
2022-08-07T10:42:46.197Z,64.00
2022-08-07T10:43:46.184Z,60.00
2022-08-07T10:44:46.172Z,56.00
2022-08-07T10:45:57.353Z,48.00
2022-08-07T10:46:46.254Z,48.00
2022-08-07T10:47:52.744Z,48.00
2022-08-07T10:48:46.126Z,48.00
2022-08-07T10:49:50.892Z,48.00
2022-08-07T10:50:50.230Z,48.00
2022-08-07T10:52:01.623Z,48.00
2022-08-07T10:52:51.213Z,48.00
2022-08-07T10:53:46.073Z,52.00
2022-08-07T10:54:53.495Z,52.00
2022-08-07T10:55:46.045Z,52.00
2022-08-07T10:56:46.086Z,48.00
2022-08-07T10:57:46.016Z,48.00
2022-08-07T10:58:47.404Z,48.00
2022-08-07T10:59:47.285Z,48.00
2022-08-07T11:00:50.248Z,52.00
2022-08-07T11:01:51.822Z,52.00
2022-08-07T11:02:48.843Z,56.00
2022-08-07T11:03:55.290Z,56.00
2022-08-07T11:04:46.204Z,64.00
2022-08-07T11:05:50.447Z,72.00
2022-08-07T11:06:45.914Z,72.00
2022-08-07T11:07:58.899Z,84.00
2022-08-07T11:08:46.342Z,92.00
2022-08-07T11:10:09.432Z,88.00
2022-08-07T11:10:50.005Z,92.00
2022-08-07T11:11:45.850Z,92.00
2022-08-07T11:12:45.840Z,80.00
2022-08-07T11:14:44.398Z,88.00
2022-08-07T11:15:00.142Z,88.00
2022-08-07T11:15:54.416Z,92.00
2022-08-07T11:16:50.750Z,92.00
2022-08-07T11:17:46.062Z,96.00
2022-08-07T11:18:50.906Z,100.00
2022-08-07T11:19:46.419Z,96.00
2022-08-07T11:20:45.743Z,84.00
2022-08-07T11:21:45.727Z,80.00
2022-08-07T11:22:46.493Z,88.00
2022-08-07T11:23:45.706Z,84.00
2022-08-07T11:24:45.863Z,72.00
2022-08-07T11:25:49.707Z,68.00
2022-08-07T11:26:50.091Z,64.00
2022-08-07T11:28:01.238Z,64.00
2022-08-07T11:28:55.400Z,72.00
2022-08-07T11:29:49.134Z,80.00
2022-08-07T11:30:45.619Z,80.00
2022-08-07T11:31:46.006Z,84.00
2022-08-07T11:32:45.590Z,88.00
2022-08-07T11:33:54.225Z,92.00
2022-08-07T11:34:45.573Z,104.00
2022-08-07T11:35:59.428Z,104.00
2022-08-07T11:36:45.547Z,100.00
2022-08-07T11:37:58.030Z,100.00
2022-08-07T11:38:50.475Z,96.00
2022-08-07T11:40:00.536Z,88.00
2022-08-07T11:40:49.868Z,88.00
2022-08-07T11:42:01.666Z,84.00
2022-08-07T11:42:45.473Z,92.00
2022-08-07T11:44:11.121Z,112.00
2022-08-07T11:44:52.357Z,124.00
2022-08-07T11:45:53.168Z,124.00
2022-08-07T11:46:45.420Z,116.00
2022-08-07T11:47:56.012Z,112.00
2022-08-07T11:48:58.921Z,116.00
2022-08-07T11:50:11.195Z,112.00
2022-08-07T11:50:57.656Z,120.00
2022-08-07T11:51:46.810Z,120.00
2022-08-07T11:52:45.413Z,112.00
2022-08-07T11:54:01.201Z,112.00
2022-08-07T11:54:54.484Z,116.00
2022-08-07T11:56:09.664Z,124.00
2022-08-07T11:56:45.301Z,132.00
2022-08-07T11:58:00.718Z,132.00
2022-08-07T11:58:45.832Z,148.00
2022-08-07T12:00:12.560Z,136.00
2022-08-07T12:00:53.653Z,144.00
2022-08-07T12:02:00.464Z,148.00
2022-08-07T12:02:52.222Z,152.00
2022-08-07T12:03:46.262Z,140.00
2022-08-07T12:04:45.799Z,148.00
2022-08-07T12:05:49.059Z,152.00
2022-08-07T12:06:55.390Z,124.00
2022-08-07T12:07:45.318Z,108.00
2022-08-07T12:08:45.588Z,100.00
2022-08-07T12:09:46.148Z,104.00
2022-08-07T12:10:45.221Z,108.00
2022-08-07T12:12:09.179Z,120.00
2022-08-07T12:12:45.100Z,120.00
2022-08-07T12:13:45.110Z,120.00
2022-08-07T12:14:45.076Z,108.00
2022-08-07T12:16:05.275Z,116.00
2022-08-07T12:16:45.048Z,120.00
2022-08-07T12:17:58.809Z,136.00
2022-08-07T12:18:45.640Z,148.00
2022-08-07T12:19:56.306Z,164.00
2022-08-07T12:20:45.004Z,200.00
2022-08-07T12:22:37.987Z,216.00
2022-08-07T12:22:55.914Z,256.00
2022-08-07T12:24:06.905Z,248.00
2022-08-07T12:24:44.947Z,224.00
2022-08-07T12:26:02.869Z,204.00
2022-08-07T12:26:49.016Z,188.00
2022-08-07T12:28:09.131Z,196.00
2022-08-07T12:28:49.634Z,216.00
2022-08-07T12:29:44.888Z,208.00
2022-08-07T12:30:46.889Z,188.00
2022-08-07T12:32:02.454Z,180.00
2022-08-07T12:32:44.848Z,168.00
2022-08-07T12:34:01.405Z,152.00
2022-08-07T12:34:49.400Z,144.00
2022-08-07T12:35:48.075Z,132.00
2022-08-07T12:36:50.073Z,140.00
2022-08-07T12:38:11.679Z,152.00
2022-08-07T12:38:47.453Z,164.00
2022-08-07T12:39:50.568Z,180.00
2022-08-07T12:40:47.803Z,180.00
2022-08-07T12:41:51.373Z,160.00
2022-08-07T12:42:52.677Z,148.00
2022-08-07T12:44:02.316Z,148.00
2022-08-07T12:44:45.399Z,144.00
2022-08-07T12:45:44.694Z,148.00
2022-08-07T12:46:46.188Z,148.00
2022-08-07T12:47:44.665Z,144.00
2022-08-07T12:48:53.130Z,144.00
2022-08-07T12:49:51.169Z,140.00
2022-08-07T12:50:49.280Z,144.00
2022-08-07T12:51:51.273Z,156.00
2022-08-07T12:52:46.155Z,160.00
2022-08-07T12:54:24.152Z,172.00
2022-08-07T12:54:54.552Z,168.00
2022-08-07T12:56:03.010Z,172.00
2022-08-07T12:56:50.952Z,168.00
2022-08-07T12:58:00.632Z,160.00
2022-08-07T12:58:46.909Z,164.00
2022-08-07T12:59:54.611Z,172.00
2022-08-07T13:00:49.922Z,156.00
2022-08-07T13:01:44.604Z,140.00
2022-08-07T13:02:47.180Z,132.00
2022-08-07T13:03:59.316Z,120.00
2022-08-07T13:04:49.364Z,116.00
2022-08-07T13:06:03.893Z,116.00
2022-08-07T13:07:00.594Z,116.00
2022-08-07T13:08:12.512Z,112.00
2022-08-07T13:08:44.411Z,108.00
2022-08-07T13:10:29.219Z,116.00